createdAt,value
2015-08-28T00:00:01.355Z,11.46
2015-08-28T00:00:13.761Z,11.43
2015-08-28T00:00:26.152Z,11.35
2015-08-28T00:00:38.563Z,11.42
2015-08-28T00:00:50.969Z,11.42
2015-08-28T00:01:03.344Z,11.41
2015-08-28T00:01:15.703Z,11.39
2015-08-28T00:01:28.066Z,11.43
2015-08-28T00:01:39.738Z,11.43
2015-08-28T00:01:52.113Z,11.38
2015-08-28T00:02:04.472Z,11.42
2015-08-28T00:02:16.847Z,11.41
2015-08-28T00:02:29.227Z,11.34
2015-08-28T00:02:41.586Z,11.41
2015-08-28T00:02:53.961Z,11.35
2015-08-28T00:03:06.336Z,11.34
2015-08-28T00:03:18.711Z,11.35
2015-08-28T00:03:30.949Z,11.33
2015-08-28T00:03:43.339Z,11.42
2015-08-28T00:03:55.714Z,11.35
2015-08-28T00:04:08.105Z,11.39
2015-08-28T00:04:20.480Z,11.34
2015-08-28T00:04:32.888Z,11.35
2015-08-28T00:04:45.295Z,11.38
2015-08-28T00:04:57.670Z,11.35
2015-08-28T00:05:10.029Z,11.41
2015-08-28T00:05:22.404Z,11.38
2015-08-28T00:05:34.782Z,11.39
2015-08-28T00:05:47.157Z,11.33
2015-08-28T00:05:59.516Z,11.39
2015-08-28T00:06:11.907Z,11.35
2015-08-28T00:06:24.282Z,11.38
2015-08-28T00:06:36.675Z,11.33
2015-08-28T00:06:49.034Z,11.35
2015-08-28T00:07:01.409Z,11.35
2015-08-28T00:07:13.784Z,11.41
2015-08-28T00:07:26.159Z,11.35
2015-08-28T00:07:38.538Z,11.33
2015-08-28T00:07:50.913Z,11.3
2015-08-28T00:08:03.304Z,11.3
2015-08-28T00:08:15.710Z,11.31
2015-08-28T00:08:28.100Z,11.33
2015-08-28T00:08:40.493Z,11.18
2015-08-28T00:08:52.899Z,11.33
2015-08-28T00:09:05.274Z,11.28
2015-08-28T00:09:17.649Z,11.3
2015-08-28T00:09:30.009Z,11.18
2015-08-28T00:09:42.385Z,11.21
2015-08-28T00:09:54.744Z,11.18
2015-08-28T00:10:07.119Z,11.16
2015-08-28T00:10:19.494Z,11.24
2015-08-28T00:10:31.872Z,11.16
2015-08-28T00:10:44.231Z,11.24
2015-08-28T00:10:56.606Z,11.18
2015-08-28T00:11:08.981Z,11.16
2015-08-28T00:11:21.341Z,11.15
2015-08-28T00:11:33.718Z,11.13
2015-08-28T00:11:46.108Z,11.08
2015-08-28T00:11:58.499Z,11.2
2015-08-28T00:12:10.874Z,11.26
2015-08-28T00:12:23.280Z,11.23
2015-08-28T00:12:35.688Z,11.23
2015-08-28T00:12:48.078Z,11.24
2015-08-28T00:13:00.500Z,11.13
2015-08-28T00:13:12.891Z,11.13
2015-08-28T00:13:25.266Z,11.26
2015-08-28T00:13:37.644Z,11.16
2015-08-28T00:13:50.003Z,11.2
2015-08-28T00:14:02.378Z,11.31
2015-08-28T00:14:14.737Z,11.18
2015-08-28T00:14:27.128Z,11.16
2015-08-28T00:14:39.348Z,11.24
2015-08-28T00:14:51.723Z,11.31
2015-08-28T00:15:04.082Z,11.24
2015-08-28T00:15:16.457Z,11.26
2015-08-28T00:15:28.832Z,11.28
2015-08-28T00:15:41.209Z,11.34
2015-08-28T00:15:53.569Z,11.28
2015-08-28T00:16:05.959Z,11.33
2015-08-28T00:16:18.350Z,11.33
2015-08-28T00:16:30.725Z,11.42
2015-08-28T00:16:43.117Z,11.39
2015-08-28T00:16:55.508Z,11.38
2015-08-28T00:17:07.899Z,11.34
2015-08-28T00:17:20.289Z,11.3
2015-08-28T00:17:32.711Z,11.33
2015-08-28T00:17:45.073Z,11.39
2015-08-28T00:17:57.448Z,11.38
2015-08-28T00:18:09.807Z,11.41
2015-08-28T00:18:22.182Z,11.34
2015-08-28T00:18:34.573Z,11.3
2015-08-28T00:18:46.934Z,11.35
2015-08-28T00:18:59.309Z,11.34
2015-08-28T00:19:11.668Z,11.38
2015-08-28T00:19:24.028Z,11.31
2015-08-28T00:19:36.389Z,11.38
2015-08-28T00:19:48.764Z,11.38
2015-08-28T00:20:01.139Z,11.34
2015-08-28T00:20:13.530Z,11.33
2015-08-28T00:20:25.936Z,11.35
2015-08-28T00:20:38.344Z,11.35
2015-08-28T00:20:50.750Z,11.38
2015-08-28T00:21:03.157Z,11.43
2015-08-28T00:21:15.516Z,11.43
2015-08-28T00:21:27.891Z,11.41
2015-08-28T00:21:40.252Z,11.39
2015-08-28T00:21:52.627Z,11.38
2015-08-28T00:22:05.002Z,11.38
2015-08-28T00:22:17.362Z,11.3
2015-08-28T00:22:29.752Z,11.31
2015-08-28T00:22:42.129Z,11.35
2015-08-28T00:22:54.504Z,11.27
2015-08-28T00:23:06.879Z,11.3
2015-08-28T00:23:19.239Z,11.34
2015-08-28T00:23:31.614Z,11.23
2015-08-28T00:23:43.991Z,11.27
2015-08-28T00:23:56.366Z,11.34
2015-08-28T00:24:08.756Z,11.28
2015-08-28T00:24:21.147Z,11.33
2015-08-28T00:24:33.538Z,11.3
2015-08-28T00:24:45.946Z,11.3
2015-08-28T00:24:58.352Z,11.26
2015-08-28T00:25:10.758Z,11.27
2015-08-28T00:25:23.133Z,11.3
2015-08-28T00:25:35.524Z,11.41
2015-08-28T00:25:47.901Z,11.33
2015-08-28T00:26:00.260Z,11.35
2015-08-28T00:26:12.635Z,11.38
2015-08-28T00:26:24.995Z,11.34
2015-08-28T00:26:37.385Z,11.35
2015-08-28T00:26:49.747Z,11.35
2015-08-28T00:27:02.122Z,11.23
2015-08-28T00:27:14.497Z,11.39
2015-08-28T00:27:26.872Z,11.35
2015-08-28T00:27:39.247Z,11.35
2015-08-28T00:27:51.607Z,11.33
2015-08-28T00:28:03.998Z,11.34
2015-08-28T00:28:16.373Z,11.3
2015-08-28T00:28:28.763Z,11.31
2015-08-28T00:28:40.467Z,11.33
2015-08-28T00:28:52.860Z,11.38
2015-08-28T00:29:05.251Z,11.33
2015-08-28T00:29:17.673Z,11.45
2015-08-28T00:29:30.095Z,11.41
2015-08-28T00:29:42.471Z,11.33
2015-08-28T00:29:54.830Z,11.35
2015-08-28T00:30:07.205Z,11.39
2015-08-28T00:30:19.580Z,11.3
2015-08-28T00:30:31.955Z,11.38
2015-08-28T00:30:44.332Z,11.31
2015-08-28T00:30:56.707Z,11.31
2015-08-28T00:31:09.066Z,11.35
2015-08-28T00:31:21.441Z,11.33
2015-08-28T00:31:33.832Z,11.35
2015-08-28T00:31:46.209Z,11.31
2015-08-28T00:31:58.568Z,11.35
2015-08-28T00:32:10.943Z,11.35
2015-08-28T00:32:23.350Z,11.35
2015-08-28T00:32:35.725Z,11.38
2015-08-28T00:32:48.117Z,11.38
2015-08-28T00:33:00.508Z,11.34
2015-08-28T00:33:12.914Z,11.34
2015-08-28T00:33:25.305Z,11.38
2015-08-28T00:33:37.711Z,11.3
2015-08-28T00:33:50.104Z,11.38
2015-08-28T00:34:02.479Z,11.35
2015-08-28T00:34:14.854Z,11.41
2015-08-28T00:34:27.229Z,11.34
2015-08-28T00:34:39.604Z,11.27
2015-08-28T00:34:51.965Z,11.38
2015-08-28T00:35:04.340Z,11.31
2015-08-28T00:35:16.699Z,11.3
2015-08-28T00:35:29.074Z,11.31
2015-08-28T00:35:41.449Z,11.31
2015-08-28T00:35:53.811Z,11.3
2015-08-28T00:36:06.186Z,11.3
2015-08-28T00:36:18.561Z,11.31
2015-08-28T00:36:30.936Z,11.35
2015-08-28T00:36:42.592Z,11.31
2015-08-28T00:36:54.969Z,11.34
2015-08-28T00:37:07.360Z,11.28
2015-08-28T00:37:19.766Z,11.3
2015-08-28T00:37:32.156Z,11.33
2015-08-28T00:37:44.547Z,11.27
2015-08-28T00:37:56.955Z,11.35
2015-08-28T00:38:09.393Z,11.28
2015-08-28T00:38:21.752Z,11.34
2015-08-28T00:38:34.127Z,11.27
2015-08-28T00:38:46.504Z,11.16
2015-08-28T00:38:58.160Z,11.33
2015-08-28T00:39:10.520Z,11.24
2015-08-28T00:39:22.895Z,11.28
2015-08-28T00:39:35.270Z,11.16
2015-08-28T00:39:47.646Z,11.27
2015-08-28T00:40:00.021Z,11.26
2015-08-28T00:40:12.380Z,11.3
2015-08-28T00:40:24.755Z,11.2
2015-08-28T00:40:37.130Z,11.27
2015-08-28T00:40:49.492Z,11.27
2015-08-28T00:41:01.898Z,11.16
2015-08-28T00:41:14.273Z,11.15
2015-08-28T00:41:26.663Z,11.21
2015-08-28T00:41:39.070Z,11.24
2015-08-28T00:41:51.463Z,11.24
2015-08-28T00:42:03.854Z,11.2
2015-08-28T00:42:16.245Z,11.23
2015-08-28T00:42:27.932Z,11.2
2015-08-28T00:42:40.291Z,11.23
2015-08-28T00:42:52.667Z,11.16
2015-08-28T00:43:05.042Z,11.21
2015-08-28T00:43:16.714Z,11.16
2015-08-28T00:43:29.089Z,11.15
2015-08-28T00:43:41.449Z,11.12
2015-08-28T00:43:53.841Z,11.2
2015-08-28T00:44:06.201Z,11.15
2015-08-28T00:44:18.576Z,11.18
2015-08-28T00:44:30.966Z,11.18
2015-08-28T00:44:43.341Z,11.13
2015-08-28T00:44:55.718Z,11.13
2015-08-28T00:45:08.078Z,11.06
2015-08-28T00:45:20.468Z,11.13
2015-08-28T00:45:32.859Z,11.1
2015-08-28T00:45:45.265Z,11.05
2015-08-28T00:45:57.658Z,11.03
2015-08-28T00:46:10.064Z,11.08
2015-08-28T00:46:22.455Z,11.13
2015-08-28T00:46:34.861Z,11
2015-08-28T00:46:47.252Z,11.05
2015-08-28T00:46:59.614Z,11.09
2015-08-28T00:47:12.005Z,11.03
2015-08-28T00:47:24.364Z,11.03
2015-08-28T00:47:36.739Z,11.03
2015-08-28T00:47:49.114Z,11.06
2015-08-28T00:48:01.490Z,11.05
2015-08-28T00:48:13.865Z,11.06
2015-08-28T00:48:26.224Z,11.08
2015-08-28T00:48:38.599Z,11.02
2015-08-28T00:48:50.961Z,11.03
2015-08-28T00:49:03.336Z,11.06
2015-08-28T00:49:15.695Z,11.02
2015-08-28T00:49:28.086Z,11.06
2015-08-28T00:49:40.461Z,11
2015-08-28T00:49:52.838Z,10.97
2015-08-28T00:50:05.260Z,11.03
2015-08-28T00:50:17.650Z,11.02
2015-08-28T00:50:30.056Z,11
2015-08-28T00:50:42.463Z,11
2015-08-28T00:50:54.855Z,11
2015-08-28T00:51:07.230Z,11.09
2015-08-28T00:51:19.605Z,11.03
2015-08-28T00:51:31.965Z,11
2015-08-28T00:51:44.324Z,11
2015-08-28T00:51:56.701Z,11.06
2015-08-28T00:52:09.076Z,10.94
2015-08-28T00:52:21.451Z,10.94
2015-08-28T00:52:33.826Z,11.06
2015-08-28T00:52:46.201Z,10.95
2015-08-28T00:52:57.859Z,10.92
2015-08-28T00:53:10.250Z,10.94
2015-08-28T00:53:22.641Z,10.91
2015-08-28T00:53:35.031Z,11.02
2015-08-28T00:53:47.406Z,10.9
2015-08-28T00:53:59.782Z,10.98
2015-08-28T00:54:12.204Z,10.95
2015-08-28T00:54:24.595Z,11
2015-08-28T00:54:36.985Z,10.95
2015-08-28T00:54:49.407Z,11.03
2015-08-28T00:55:01.801Z,10.97
2015-08-28T00:55:14.191Z,11.03
2015-08-28T00:55:26.551Z,10.92
2015-08-28T00:55:38.926Z,10.98
2015-08-28T00:55:51.285Z,11
2015-08-28T00:56:03.662Z,10.94
2015-08-28T00:56:16.037Z,11.02
2015-08-28T00:56:28.397Z,10.97
2015-08-28T00:56:40.772Z,11.05
2015-08-28T00:56:53.147Z,10.9
2015-08-28T00:57:05.508Z,10.94
2015-08-28T00:57:17.883Z,10.95
2015-08-28T00:57:30.242Z,11
2015-08-28T00:57:42.617Z,10.98
2015-08-28T00:57:54.978Z,11.03
2015-08-28T00:58:07.368Z,10.85
2015-08-28T00:58:19.743Z,10.94
2015-08-28T00:58:32.165Z,10.94
2015-08-28T00:58:44.556Z,11
2015-08-28T00:58:56.948Z,11
2015-08-28T00:59:09.323Z,10.95
2015-08-28T00:59:21.730Z,10.9
2015-08-28T00:59:34.089Z,10.94
2015-08-28T00:59:46.464Z,10.91
2015-08-28T00:59:58.826Z,11.02
2015-08-28T01:00:11.201Z,10.98
2015-08-28T01:00:23.576Z,10.95
2015-08-28T01:00:35.936Z,10.95
2015-08-28T01:00:48.326Z,10.98
2015-08-28T01:01:00.687Z,11.08
2015-08-28T01:01:13.062Z,11
2015-08-28T01:01:25.437Z,10.95
2015-08-28T01:01:37.812Z,11.02
2015-08-28T01:01:50.187Z,10.9
2015-08-28T01:02:02.579Z,10.91
2015-08-28T01:02:14.970Z,10.87
2015-08-28T01:02:27.376Z,10.94
2015-08-28T01:02:39.767Z,10.95
2015-08-28T01:02:52.173Z,11.03
2015-08-28T01:03:04.581Z,11.02
2015-08-28T01:03:16.956Z,10.9
2015-08-28T01:03:29.331Z,10.92
2015-08-28T01:03:41.691Z,10.88
2015-08-28T01:03:54.081Z,10.87
2015-08-28T01:04:06.458Z,10.95
2015-08-28T01:04:18.833Z,10.98
2015-08-28T01:04:30.490Z,10.91
2015-08-28T01:04:42.849Z,11
2015-08-28T01:04:55.224Z,10.97
2015-08-28T01:05:07.617Z,11
2015-08-28T01:05:19.976Z,11.05
2015-08-28T01:05:32.351Z,10.95
2015-08-28T01:05:44.726Z,11
2015-08-28T01:05:57.103Z,10.88
2015-08-28T01:06:09.478Z,10.88
2015-08-28T01:06:21.884Z,10.97
2015-08-28T01:06:34.275Z,10.92
2015-08-28T01:06:46.666Z,10.94
2015-08-28T01:06:59.074Z,11
2015-08-28T01:07:10.746Z,10.9
2015-08-28T01:07:23.136Z,10.91
2015-08-28T01:07:35.527Z,10.97
2015-08-28T01:07:47.902Z,11.03
2015-08-28T01:08:00.279Z,10.95
2015-08-28T01:08:12.654Z,10.97
2015-08-28T01:08:25.029Z,11.05
2015-08-28T01:08:37.388Z,11.02
2015-08-28T01:08:49.763Z,11
2015-08-28T01:09:02.125Z,11.03
2015-08-28T01:09:14.500Z,11.02
2015-08-28T01:09:26.859Z,10.94
2015-08-28T01:09:39.234Z,10.97
2015-08-28T01:09:51.609Z,11
2015-08-28T01:10:03.266Z,10.95
2015-08-28T01:10:15.657Z,11
2015-08-28T01:10:28.032Z,11.02
2015-08-28T01:10:40.454Z,11
2015-08-28T01:10:52.844Z,11.03
2015-08-28T01:11:05.238Z,11.02
2015-08-28T01:11:17.660Z,11.06
2015-08-28T01:11:30.066Z,10.98
2015-08-28T01:11:42.441Z,11.03
2015-08-28T01:11:54.816Z,10.98
2015-08-28T01:12:07.177Z,10.95
2015-08-28T01:12:19.552Z,11.02
2015-08-28T01:12:31.911Z,10.95
2015-08-28T01:12:44.286Z,11
2015-08-28T01:12:56.661Z,10.97
2015-08-28T01:13:09.038Z,10.92
2015-08-28T01:13:21.397Z,11
2015-08-28T01:13:33.772Z,10.97
2015-08-28T01:13:46.163Z,10.98
2015-08-28T01:13:58.382Z,11
2015-08-28T01:14:10.744Z,10.98
2015-08-28T01:14:23.135Z,11.02
2015-08-28T01:14:35.510Z,11.03
2015-08-28T01:14:47.916Z,10.94
2015-08-28T01:15:00.307Z,10.92
2015-08-28T01:15:12.698Z,10.98
2015-08-28T01:15:25.104Z,10.91
2015-08-28T01:15:37.495Z,11
2015-08-28T01:15:49.870Z,10.94
2015-08-28T01:16:02.231Z,11
2015-08-28T01:16:14.606Z,11
2015-08-28T01:16:26.966Z,11.03
2015-08-28T01:16:39.341Z,11
2015-08-28T01:16:51.700Z,10.97
2015-08-28T01:17:04.078Z,10.87
2015-08-28T01:17:16.438Z,10.91
2015-08-28T01:17:28.813Z,10.94
2015-08-28T01:17:41.188Z,10.98
2015-08-28T01:17:53.547Z,10.94
2015-08-28T01:18:05.923Z,10.87
2015-08-28T01:18:18.298Z,10.94
2015-08-28T01:18:30.704Z,10.92
2015-08-28T01:18:43.095Z,10.95
2015-08-28T01:18:55.470Z,10.84
2015-08-28T01:19:07.862Z,10.94
2015-08-28T01:19:20.269Z,10.91
2015-08-28T01:19:32.675Z,10.92
2015-08-28T01:19:45.081Z,10.84
2015-08-28T01:19:57.472Z,10.95
2015-08-28T01:20:09.833Z,10.87
2015-08-28T01:20:22.208Z,10.9
2015-08-28T01:20:34.568Z,10.87
2015-08-28T01:20:46.943Z,10.97
2015-08-28T01:20:58.614Z,10.87
2015-08-28T01:21:10.976Z,10.92
2015-08-28T01:21:23.351Z,10.9
2015-08-28T01:21:35.726Z,10.94
2015-08-28T01:21:48.101Z,10.9
2015-08-28T01:22:00.491Z,10.87
2015-08-28T01:22:12.867Z,10.84
2015-08-28T01:22:25.258Z,10.9
2015-08-28T01:22:37.664Z,10.85
2015-08-28T01:22:49.336Z,10.88
2015-08-28T01:23:01.024Z,10.91
2015-08-28T01:23:13.449Z,10.85
2015-08-28T01:23:25.839Z,10.87
2015-08-28T01:23:38.214Z,10.85
2015-08-28T01:23:50.574Z,10.88
2015-08-28T01:24:02.964Z,10.9
2015-08-28T01:24:15.341Z,10.9
2015-08-28T01:24:27.716Z,10.83
2015-08-28T01:24:40.091Z,10.85
2015-08-28T01:24:52.466Z,10.84
2015-08-28T01:25:04.859Z,10.94
2015-08-28T01:25:17.218Z,10.8
2015-08-28T01:25:29.609Z,10.84
2015-08-28T01:25:41.984Z,10.76
2015-08-28T01:25:54.359Z,10.85
2015-08-28T01:26:06.720Z,10.79
2015-08-28T01:26:18.408Z,10.84
2015-08-28T01:26:30.783Z,10.84
2015-08-28T01:26:43.173Z,10.85
2015-08-28T01:26:55.580Z,10.79
2015-08-28T01:27:07.971Z,10.84
2015-08-28T01:27:20.362Z,10.8
2015-08-28T01:27:32.768Z,10.87
2015-08-28T01:27:45.143Z,10.9
2015-08-28T01:27:57.534Z,10.83
2015-08-28T01:28:09.912Z,10.83
2015-08-28T01:28:22.271Z,10.83
2015-08-28T01:28:34.646Z,10.88
2015-08-28T01:28:47.005Z,10.88
2015-08-28T01:28:59.396Z,10.88
2015-08-28T01:29:11.803Z,10.87
2015-08-28T01:29:24.163Z,10.98
2015-08-28T01:29:36.538Z,10.92
2015-08-28T01:29:48.913Z,10.91
2015-08-28T01:30:01.288Z,10.97
2015-08-28T01:30:13.665Z,10.92
2015-08-28T01:30:26.040Z,10.97
2015-08-28T01:30:38.430Z,10.94
2015-08-28T01:30:50.821Z,10.91
2015-08-28T01:31:03.212Z,10.95
2015-08-28T01:31:15.620Z,10.91
2015-08-28T01:31:28.010Z,10.87
2015-08-28T01:31:40.401Z,10.92
2015-08-28T01:31:52.776Z,10.87
2015-08-28T01:32:05.151Z,10.94
2015-08-28T01:32:17.512Z,10.91
2015-08-28T01:32:29.903Z,10.95
2015-08-28T01:32:42.278Z,10.91
2015-08-28T01:32:54.637Z,10.9
2015-08-28T01:33:07.015Z,10.92
2015-08-28T01:33:19.390Z,10.94
2015-08-28T01:33:31.750Z,10.92
2015-08-28T01:33:44.125Z,10.94
2015-08-28T01:33:56.484Z,10.85
2015-08-28T01:34:08.876Z,10.9
2015-08-28T01:34:21.251Z,10.91
2015-08-28T01:34:33.626Z,10.88
2015-08-28T01:34:46.001Z,10.85
2015-08-28T01:34:58.391Z,10.85
2015-08-28T01:35:10.800Z,10.9
2015-08-28T01:35:23.190Z,10.9
2015-08-28T01:35:35.581Z,10.87
2015-08-28T01:35:47.972Z,10.85
2015-08-28T01:36:00.378Z,10.84
2015-08-28T01:36:12.755Z,10.84
2015-08-28T01:36:25.130Z,10.87
2015-08-28T01:36:37.505Z,10.84
2015-08-28T01:36:49.880Z,10.83
2015-08-28T01:37:02.239Z,10.91
2015-08-28T01:37:14.616Z,10.9
2015-08-28T01:37:27.007Z,10.85
2015-08-28T01:37:39.382Z,10.85
2015-08-28T01:37:51.741Z,10.84
2015-08-28T01:38:04.116Z,10.84
2015-08-28T01:38:16.492Z,10.84
2015-08-28T01:38:28.852Z,10.9
2015-08-28T01:38:41.242Z,10.84
2015-08-28T01:38:53.617Z,10.88
2015-08-28T01:39:05.992Z,10.85
2015-08-28T01:39:18.230Z,10.83
2015-08-28T01:39:30.636Z,10.83
2015-08-28T01:39:43.011Z,10.88
2015-08-28T01:39:55.386Z,10.87
2015-08-28T01:40:07.776Z,10.9
2015-08-28T01:40:20.169Z,10.87
2015-08-28T01:40:32.528Z,10.87
2015-08-28T01:40:44.903Z,10.87
2015-08-28T01:40:57.278Z,10.9
2015-08-28T01:41:09.654Z,10.85
2015-08-28T01:41:22.014Z,10.84
2015-08-28T01:41:34.389Z,10.94
2015-08-28T01:41:46.779Z,10.91
2015-08-28T01:41:59.154Z,10.9
2015-08-28T01:42:11.531Z,10.85
2015-08-28T01:42:23.891Z,10.85
2015-08-28T01:42:36.266Z,10.85
2015-08-28T01:42:48.641Z,10.85
2015-08-28T01:43:01.016Z,10.88
2015-08-28T01:43:13.408Z,10.87
2015-08-28T01:43:25.799Z,10.88
2015-08-28T01:43:38.205Z,10.9
2015-08-28T01:43:50.596Z,10.79
2015-08-28T01:44:03.002Z,10.87
2015-08-28T01:44:15.395Z,10.77
2015-08-28T01:44:27.785Z,10.84
2015-08-28T01:44:40.160Z,10.73
2015-08-28T01:44:52.535Z,10.8
2015-08-28T01:45:04.910Z,10.73
2015-08-28T01:45:17.131Z,10.76
2015-08-28T01:45:29.522Z,10.8
2015-08-28T01:45:41.881Z,10.79
2015-08-28T01:45:54.256Z,10.83
2015-08-28T01:46:06.631Z,10.79
2015-08-28T01:46:19.008Z,10.76
2015-08-28T01:46:31.383Z,10.76
2015-08-28T01:46:43.758Z,10.83
2015-08-28T01:46:56.118Z,10.77
2015-08-28T01:47:08.493Z,10.8
2015-08-28T01:47:20.885Z,10.79
2015-08-28T01:47:33.260Z,10.72
2015-08-28T01:47:45.682Z,10.87
2015-08-28T01:47:58.073Z,10.79
2015-08-28T01:48:10.479Z,10.75
2015-08-28T01:48:22.887Z,10.79
2015-08-28T01:48:35.293Z,10.84
2015-08-28T01:48:47.668Z,10.77
2015-08-28T01:49:00.028Z,10.76
2015-08-28T01:49:12.403Z,10.79
2015-08-28T01:49:24.764Z,10.75
2015-08-28T01:49:37.139Z,10.79
2015-08-28T01:49:49.499Z,10.73
2015-08-28T01:50:01.874Z,10.83
2015-08-28T01:50:14.251Z,10.85
2015-08-28T01:50:26.629Z,10.77
2015-08-28T01:50:39.004Z,10.84
2015-08-28T01:50:51.364Z,10.79
2015-08-28T01:51:03.739Z,10.79
2015-08-28T01:51:16.116Z,10.73
2015-08-28T01:51:28.491Z,10.72
2015-08-28T01:51:40.866Z,10.75
2015-08-28T01:51:53.241Z,10.76
2015-08-28T01:52:05.647Z,10.69
2015-08-28T01:52:18.040Z,10.73
2015-08-28T01:52:30.446Z,10.77
2015-08-28T01:52:42.837Z,10.76
2015-08-28T01:52:55.227Z,10.76
2015-08-28T01:53:07.587Z,10.75
2015-08-28T01:53:19.964Z,10.69
2015-08-28T01:53:32.339Z,10.75
2015-08-28T01:53:44.698Z,10.73
2015-08-28T01:53:57.073Z,10.66
2015-08-28T01:54:09.432Z,10.75
2015-08-28T01:54:21.809Z,10.72
2015-08-28T01:54:34.169Z,10.75
2015-08-28T01:54:46.544Z,10.77
2015-08-28T01:54:58.919Z,10.75
2015-08-28T01:55:11.294Z,10.7
2015-08-28T01:55:23.655Z,10.75
2015-08-28T01:55:36.046Z,10.73
2015-08-28T01:55:48.421Z,10.7
2015-08-28T01:56:00.796Z,10.79
2015-08-28T01:56:13.186Z,10.77
2015-08-28T01:56:25.594Z,10.79
2015-08-28T01:56:38.000Z,10.77
2015-08-28T01:56:50.406Z,10.73
2015-08-28T01:57:02.094Z,10.72
2015-08-28T01:57:14.515Z,10.8
2015-08-28T01:57:26.893Z,10.83
2015-08-28T01:57:39.253Z,10.8
2015-08-28T01:57:51.628Z,10.8
2015-08-28T01:58:04.003Z,10.77
2015-08-28T01:58:16.378Z,10.76
2015-08-28T01:58:28.755Z,10.73
2015-08-28T01:58:41.145Z,10.84
2015-08-28T01:58:53.520Z,10.73
2015-08-28T01:59:05.895Z,10.77
2015-08-28T01:59:18.270Z,10.76
2015-08-28T01:59:30.646Z,10.72
2015-08-28T01:59:43.006Z,10.8
2015-08-28T01:59:55.365Z,10.7
2015-08-28T02:00:07.756Z,10.8
2015-08-28T02:00:20.149Z,10.72
2015-08-28T02:00:32.540Z,10.76
2015-08-28T02:00:44.931Z,10.73
2015-08-28T02:00:57.337Z,10.75
2015-08-28T02:01:09.728Z,10.79
2015-08-28T02:01:22.135Z,10.8
2015-08-28T02:01:34.525Z,10.8
2015-08-28T02:01:46.885Z,10.83
2015-08-28T02:01:59.260Z,10.79
2015-08-28T02:02:11.635Z,10.8
2015-08-28T02:02:23.996Z,10.83
2015-08-28T02:02:36.356Z,10.72
2015-08-28T02:02:48.746Z,10.75
2015-08-28T02:03:01.137Z,10.84
2015-08-28T02:03:13.496Z,10.84
2015-08-28T02:03:25.873Z,10.73
2015-08-28T02:03:38.233Z,10.75
2015-08-28T02:03:50.608Z,10.76
2015-08-28T02:04:02.967Z,10.79
2015-08-28T02:04:15.342Z,10.77
2015-08-28T02:04:27.720Z,10.76
2015-08-28T02:04:40.111Z,10.73
2015-08-28T02:04:52.501Z,10.77
2015-08-28T02:05:04.907Z,10.79
2015-08-28T02:05:17.314Z,10.75
2015-08-28T02:05:29.705Z,10.83
2015-08-28T02:05:42.112Z,10.79
2015-08-28T02:05:54.518Z,10.76
2015-08-28T02:06:06.893Z,10.8
2015-08-28T02:06:19.252Z,10.76
2015-08-28T02:06:31.614Z,10.75
2015-08-28T02:06:43.989Z,10.83
2015-08-28T02:06:56.348Z,10.83
2015-08-28T02:07:08.723Z,10.76
2015-08-28T02:07:21.098Z,10.8
2015-08-28T02:07:33.475Z,10.84
2015-08-28T02:07:45.850Z,10.9
2015-08-28T02:07:58.209Z,10.83
2015-08-28T02:08:10.584Z,10.77
2015-08-28T02:08:22.961Z,10.8
2015-08-28T02:08:35.352Z,10.75
2015-08-28T02:08:47.743Z,10.84
2015-08-28T02:09:00.118Z,10.77
2015-08-28T02:09:12.524Z,10.83
2015-08-28T02:09:24.915Z,10.79
2015-08-28T02:09:37.322Z,10.8
2015-08-28T02:09:49.712Z,10.8
2015-08-28T02:10:02.134Z,10.76
2015-08-28T02:10:14.494Z,10.73
2015-08-28T02:10:26.855Z,10.76
2015-08-28T02:10:39.230Z,10.76
2015-08-28T02:10:51.621Z,10.79
2015-08-28T02:11:03.996Z,10.79
2015-08-28T02:11:16.355Z,10.73
2015-08-28T02:11:28.733Z,10.79
2015-08-28T02:11:41.108Z,10.79
2015-08-28T02:11:53.467Z,10.79
2015-08-28T02:12:05.842Z,10.76
2015-08-28T02:12:18.217Z,10.84
2015-08-28T02:12:30.579Z,10.83
2015-08-28T02:12:42.985Z,10.8
2015-08-28T02:12:55.360Z,10.76
2015-08-28T02:13:07.735Z,10.79
2015-08-28T02:13:20.126Z,10.79
2015-08-28T02:13:32.517Z,10.8
2015-08-28T02:13:44.908Z,10.83
2015-08-28T02:13:57.314Z,10.83
2015-08-28T02:14:09.705Z,10.73
2015-08-28T02:14:22.080Z,10.77
2015-08-28T02:14:34.457Z,10.83
2015-08-28T02:14:46.832Z,10.75
2015-08-28T02:14:59.207Z,10.76
2015-08-28T02:15:11.582Z,10.72
2015-08-28T02:15:23.941Z,10.67
2015-08-28T02:15:36.334Z,10.73
2015-08-28T02:15:48.724Z,10.7
2015-08-28T02:16:01.084Z,10.75
2015-08-28T02:16:13.459Z,10.83
2015-08-28T02:16:25.837Z,10.72
2015-08-28T02:16:38.196Z,10.7
2015-08-28T02:16:50.571Z,10.77
2015-08-28T02:17:02.946Z,10.72
2015-08-28T02:17:14.618Z,10.75
2015-08-28T02:17:26.994Z,10.8
2015-08-28T02:17:39.400Z,10.73
2015-08-28T02:17:51.791Z,10.73
2015-08-28T02:18:04.197Z,10.83
2015-08-28T02:18:16.588Z,10.77
2015-08-28T02:18:28.980Z,10.77
2015-08-28T02:18:41.371Z,10.73
2015-08-28T02:18:53.746Z,10.66
2015-08-28T02:19:06.105Z,10.77
2015-08-28T02:19:18.480Z,10.76
2015-08-28T02:19:30.842Z,10.72
2015-08-28T02:19:43.217Z,10.72
2015-08-28T02:19:55.592Z,10.77
2015-08-28T02:20:07.951Z,10.65
2015-08-28T02:20:20.310Z,10.7
2015-08-28T02:20:32.672Z,10.76
2015-08-28T02:20:45.047Z,10.73
2015-08-28T02:20:57.422Z,10.77
2015-08-28T02:21:09.797Z,10.73
2015-08-28T02:21:22.172Z,10.8
2015-08-28T02:21:34.549Z,10.77
2015-08-28T02:21:46.939Z,10.67
2015-08-28T02:21:59.346Z,10.76
2015-08-28T02:22:11.736Z,10.67
2015-08-28T02:22:24.127Z,10.8
2015-08-28T02:22:36.535Z,10.79
2015-08-28T02:22:48.957Z,10.69
2015-08-28T02:23:01.332Z,10.7
2015-08-28T02:23:13.691Z,10.73
2015-08-28T02:23:26.098Z,10.67
2015-08-28T02:23:38.475Z,10.7
2015-08-28T02:23:50.850Z,10.75
2015-08-28T02:24:03.209Z,10.7
2015-08-28T02:24:15.584Z,10.63
2015-08-28T02:24:27.959Z,10.65
2015-08-28T02:24:40.320Z,10.72
2015-08-28T02:24:52.711Z,10.65
2015-08-28T02:25:05.086Z,10.7
2015-08-28T02:25:17.445Z,10.63
2015-08-28T02:25:29.822Z,10.61
2015-08-28T02:25:42.197Z,10.61
2015-08-28T02:25:54.572Z,10.61
2015-08-28T02:26:06.963Z,10.65
2015-08-28T02:26:19.369Z,10.61
2015-08-28T02:26:31.778Z,10.61
2015-08-28T02:26:44.168Z,10.66
2015-08-28T02:26:56.559Z,10.58
2015-08-28T02:27:08.934Z,10.57
2015-08-28T02:27:21.309Z,10.67
2015-08-28T02:27:33.686Z,10.63
2015-08-28T02:27:46.045Z,10.55
2015-08-28T02:27:58.420Z,10.61
2015-08-28T02:28:10.795Z,10.63
2015-08-28T02:28:23.201Z,10.58
2015-08-28T02:28:35.563Z,10.54
2015-08-28T02:28:47.938Z,10.67
2015-08-28T02:29:00.313Z,10.61
2015-08-28T02:29:12.688Z,10.61
2015-08-28T02:29:25.063Z,10.65
2015-08-28T02:29:37.423Z,10.67
2015-08-28T02:29:49.814Z,10.63
2015-08-28T02:30:02.189Z,10.73
2015-08-28T02:30:14.564Z,10.63
2015-08-28T02:30:26.970Z,10.67
2015-08-28T02:30:39.364Z,10.67
2015-08-28T02:30:51.754Z,10.72
2015-08-28T02:31:04.145Z,10.66
2015-08-28T02:31:16.536Z,10.67
2015-08-28T02:31:28.911Z,10.66
2015-08-28T02:31:41.272Z,10.63
2015-08-28T02:31:53.647Z,10.72
2015-08-28T02:32:06.022Z,10.69
2015-08-28T02:32:18.381Z,10.55
2015-08-28T02:32:30.756Z,10.72
2015-08-28T02:32:43.133Z,10.7
2015-08-28T02:32:54.790Z,10.63
2015-08-28T02:33:07.165Z,10.57
2015-08-28T02:33:19.524Z,10.66
2015-08-28T02:33:31.901Z,10.65
2015-08-28T02:33:44.276Z,10.7
2015-08-28T02:33:56.667Z,10.66
2015-08-28T02:34:09.057Z,10.67
2015-08-28T02:34:21.432Z,10.67
2015-08-28T02:34:33.824Z,10.63
2015-08-28T02:34:46.230Z,10.63
2015-08-28T02:34:58.621Z,10.66
2015-08-28T02:35:11.027Z,10.69
2015-08-28T02:35:23.433Z,10.66
2015-08-28T02:35:35.795Z,10.63
2015-08-28T02:35:48.154Z,10.63
2015-08-28T02:36:00.545Z,10.59
2015-08-28T02:36:12.920Z,10.61
2015-08-28T02:36:25.279Z,10.59
2015-08-28T02:36:37.672Z,10.55
2015-08-28T02:36:50.031Z,10.61
2015-08-28T02:37:02.406Z,10.59
2015-08-28T02:37:14.781Z,10.57
2015-08-28T02:37:27.172Z,10.58
2015-08-28T02:37:39.549Z,10.65
2015-08-28T02:37:51.908Z,10.66
2015-08-28T02:38:04.299Z,10.63
2015-08-28T02:38:16.674Z,10.66
2015-08-28T02:38:29.049Z,10.59
2015-08-28T02:38:41.441Z,10.58
2015-08-28T02:38:53.832Z,10.61
2015-08-28T02:39:06.222Z,10.59
2015-08-28T02:39:18.644Z,10.58
2015-08-28T02:39:31.035Z,10.67
2015-08-28T02:39:43.428Z,10.58
2015-08-28T02:39:55.803Z,10.61
2015-08-28T02:40:08.162Z,10.59
2015-08-28T02:40:20.553Z,10.63